createdAt,value
2022-11-03T00:01:00.999Z,81
2022-11-03T00:04:26.243Z,81
2022-11-03T00:07:51.508Z,82
2022-11-03T00:11:16.781Z,81
2022-11-03T00:14:42.005Z,82
2022-11-03T00:18:07.296Z,83
2022-11-03T00:21:32.571Z,82
2022-11-03T00:24:57.824Z,80
2022-11-03T00:28:23.106Z,81
2022-11-03T00:31:48.364Z,80
2022-11-03T00:35:13.601Z,79
2022-11-03T00:38:38.847Z,79
2022-11-03T00:42:04.137Z,80
2022-11-03T00:45:29.385Z,80
2022-11-03T00:48:54.581Z,80
2022-11-03T00:52:19.899Z,80
2022-11-03T00:55:45.167Z,81
2022-11-03T00:59:10.465Z,80
2022-11-03T01:02:35.839Z,81
2022-11-03T01:06:00.925Z,80
2022-11-03T01:09:26.216Z,82
2022-11-03T01:12:51.459Z,80
2022-11-03T01:16:16.671Z,80
2022-11-03T01:19:42.024Z,81
2022-11-03T01:23:07.517Z,81
2022-11-03T01:26:32.428Z,81
2022-11-03T01:29:57.716Z,83
2022-11-03T01:33:22.921Z,83
2022-11-03T01:36:48.263Z,82
2022-11-03T01:40:13.456Z,81
2022-11-03T01:43:38.686Z,81
2022-11-03T01:47:03.915Z,83
2022-11-03T01:50:29.155Z,84
2022-11-03T01:53:54.424Z,82
2022-11-03T01:57:19.667Z,83
2022-11-03T02:00:44.957Z,82
2022-11-03T02:04:10.133Z,81
2022-11-03T02:07:35.397Z,81
2022-11-03T02:11:00.692Z,81
2022-11-03T02:14:25.958Z,81
2022-11-03T02:17:51.191Z,81
2022-11-03T02:21:16.437Z,82
2022-11-03T02:24:41.704Z,81
2022-11-03T02:28:07.009Z,82
2022-11-03T02:31:32.248Z,82
2022-11-03T02:34:57.546Z,82
2022-11-03T02:38:22.774Z,81
2022-11-03T02:41:47.981Z,82
2022-11-03T02:45:14.835Z,81
2022-11-03T02:48:38.459Z,80
2022-11-03T02:52:03.733Z,80
2022-11-03T02:55:28.975Z,81
2022-11-03T02:58:54.219Z,82
2022-11-03T03:02:19.485Z,82
2022-11-03T03:05:44.644Z,81
2022-11-03T03:09:09.944Z,82
2022-11-03T03:12:35.226Z,82
2022-11-03T03:16:00.518Z,81
2022-11-03T03:19:25.803Z,82
2022-11-03T03:22:51.059Z,81
2022-11-03T03:26:16.362Z,81
2022-11-03T03:29:41.627Z,82
2022-11-03T03:33:07.142Z,83
2022-11-03T03:36:32.172Z,81
2022-11-03T03:39:57.377Z,82
2022-11-03T03:43:22.626Z,82
2022-11-03T03:46:47.875Z,81
2022-11-03T03:50:13.119Z,82
2022-11-03T03:53:38.391Z,83
2022-11-03T03:57:03.637Z,81
2022-11-03T04:00:28.880Z,83
2022-11-03T04:03:54.126Z,84
2022-11-03T04:07:19.409Z,84
2022-11-03T04:10:44.709Z,83
2022-11-03T04:14:09.935Z,84
2022-11-03T04:17:35.258Z,84
2022-11-03T04:21:00.477Z,84
2022-11-03T04:24:25.738Z,83
2022-11-03T04:27:51.006Z,82
2022-11-03T04:31:16.220Z,82
2022-11-03T04:34:41.503Z,81
2022-11-03T04:38:06.947Z,81
2022-11-03T04:41:31.994Z,81
2022-11-03T04:44:57.312Z,82
2022-11-03T04:48:22.530Z,81
2022-11-03T04:51:47.755Z,81
2022-11-03T04:55:17.197Z,81
2022-11-03T04:58:44.665Z,82
2022-11-03T05:05:35.142Z,82
2022-11-03T05:09:00.392Z,83
2022-11-03T05:12:25.622Z,83
2022-11-03T05:15:50.930Z,82
2022-11-03T05:19:16.341Z,83
2022-11-03T05:22:41.598Z,85
2022-11-03T05:26:06.825Z,86
2022-11-03T05:29:32.101Z,86
2022-11-03T05:32:57.448Z,85
2022-11-03T05:36:22.723Z,83
2022-11-03T05:39:47.940Z,83
2022-11-03T05:43:13.174Z,82
2022-11-03T05:46:38.425Z,81
2022-11-03T05:50:03.670Z,82
2022-11-03T05:53:28.955Z,83
2022-11-03T05:56:54.168Z,83
2022-11-03T06:00:19.405Z,83
2022-11-03T06:03:44.620Z,83
2022-11-03T06:07:09.847Z,84
2022-11-03T06:10:35.137Z,85
2022-11-03T06:14:00.368Z,86
2022-11-03T06:17:25.606Z,88
2022-11-03T06:20:50.833Z,88
2022-11-03T06:24:16.068Z,87
2022-11-03T06:27:41.314Z,87
2022-11-03T06:31:06.517Z,86
2022-11-03T06:34:31.721Z,85
2022-11-03T06:37:56.950Z,85
2022-11-03T06:41:22.157Z,86
2022-11-03T06:44:47.379Z,87
2022-11-03T06:48:12.597Z,87
2022-11-03T06:51:37.804Z,86
2022-11-03T06:55:03.042Z,87
2022-11-03T06:58:28.268Z,86
2022-11-03T07:01:53.603Z,86
2022-11-03T07:05:18.750Z,87
2022-11-03T07:08:44.002Z,87
2022-11-03T07:12:09.244Z,87
2022-11-03T07:15:34.450Z,87
2022-11-03T07:18:59.734Z,88
2022-11-03T07:22:24.993Z,89
2022-11-03T07:25:50.242Z,89
2022-11-03T07:29:15.468Z,89
2022-11-03T07:32:40.683Z,89
2022-11-03T07:36:15.186Z,89
2022-11-03T07:39:31.132Z,89
2022-11-03T07:42:56.376Z,89
2022-11-03T07:46:21.612Z,88
2022-11-03T07:49:46.831Z,88
2022-11-03T07:53:12.092Z,88
2022-11-03T07:56:37.425Z,88
2022-11-03T08:00:03.898Z,88
2022-11-03T08:03:27.839Z,88
2022-11-03T08:06:53.078Z,88
2022-11-03T08:10:18.354Z,88
2022-11-03T08:13:43.576Z,88
2022-11-03T08:17:08.801Z,88
2022-11-03T08:20:34.033Z,87
2022-11-03T08:23:59.266Z,87
2022-11-03T08:27:24.575Z,86
2022-11-03T08:30:49.775Z,86
2022-11-03T08:34:15.034Z,86
2022-11-03T08:37:40.303Z,86
2022-11-03T08:41:05.545Z,86
2022-11-03T08:44:30.823Z,86
2022-11-03T08:47:56.064Z,85
2022-11-03T08:51:21.348Z,85
2022-11-03T08:54:46.783Z,84
2022-11-03T08:58:11.845Z,83
2022-11-03T09:01:37.177Z,83
2022-11-03T09:05:02.319Z,82
2022-11-03T09:11:52.840Z,81
2022-11-03T09:15:18.069Z,82
2022-11-03T09:18:43.357Z,80
2022-11-03T09:22:08.537Z,80
2022-11-03T09:25:33.776Z,80
2022-11-03T09:28:59.015Z,78
2022-11-03T09:32:24.235Z,78
2022-11-03T09:35:49.494Z,78
2022-11-03T09:39:14.691Z,76
2022-11-03T09:42:39.908Z,77
2022-11-03T09:46:05.148Z,77
2022-11-03T09:49:30.350Z,77
2022-11-03T09:52:55.590Z,76
2022-11-03T09:56:20.807Z,76
2022-11-03T09:59:46.020Z,75
2022-11-03T10:03:11.285Z,75
2022-11-03T10:06:36.511Z,74
2022-11-03T10:10:01.773Z,74
2022-11-03T10:13:26.950Z,75
2022-11-03T10:16:53.294Z,74
2022-11-03T10:20:17.406Z,74
2022-11-03T10:23:42.626Z,74
2022-11-03T10:27:07.871Z,74
2022-11-03T10:30:40.535Z,73
2022-11-03T10:33:58.314Z,71
2022-11-03T10:37:23.585Z,71
2022-11-03T10:40:49.008Z,72
2022-11-03T10:44:14.048Z,71
2022-11-03T10:47:39.241Z,71
2022-11-03T10:51:04.455Z,72
2022-11-03T10:54:29.672Z,72
2022-11-03T10:57:54.914Z,71
2022-11-03T11:01:20.431Z,71
2022-11-03T11:04:45.645Z,70
2022-11-03T11:08:10.881Z,70
2022-11-03T11:11:36.053Z,70
2022-11-03T11:15:01.275Z,68
2022-11-03T11:18:26.519Z,69
2022-11-03T11:21:51.750Z,69
2022-11-03T11:25:17.002Z,69
2022-11-03T11:28:42.236Z,70
2022-11-03T11:32:07.471Z,67
2022-11-03T11:35:32.726Z,67
2022-11-03T11:38:57.962Z,67
2022-11-03T11:42:23.272Z,68
2022-11-03T11:45:48.451Z,68
2022-11-03T11:49:13.675Z,68
2022-11-03T11:52:38.968Z,69
2022-11-03T11:56:04.176Z,68
2022-11-03T11:59:29.395Z,69
2022-11-03T12:02:54.689Z,70
2022-11-03T12:06:19.917Z,70
2022-11-03T12:09:45.180Z,70
2022-11-03T12:13:10.382Z,70
2022-11-03T12:16:35.648Z,71
2022-11-03T12:20:00.885Z,71
2022-11-03T12:23:26.147Z,72
2022-11-03T12:26:51.530Z,72
2022-11-03T12:30:16.720Z,71
2022-11-03T12:33:41.970Z,72
2022-11-03T12:37:07.373Z,73
2022-11-03T12:40:32.762Z,72
2022-11-03T12:43:58.216Z,73
2022-11-03T12:47:23.328Z,73
2022-11-03T12:50:48.581Z,73
2022-11-03T12:54:13.862Z,73
2022-11-03T12:57:39.112Z,72
2022-11-03T13:01:04.514Z,73
2022-11-03T13:04:29.631Z,73
2022-11-03T13:07:54.881Z,73
2022-11-03T13:11:20.166Z,73
2022-11-03T13:14:46.208Z,73
2022-11-03T13:18:13.655Z,73
2022-11-03T13:21:35.944Z,73
2022-11-03T13:25:01.238Z,73
2022-11-03T13:28:26.495Z,73
2022-11-03T13:31:51.759Z,73
2022-11-03T13:35:17.032Z,73
2022-11-03T13:38:42.290Z,74
2022-11-03T13:42:07.570Z,74
2022-11-03T13:45:32.815Z,73
2022-11-03T13:52:23.296Z,73
2022-11-03T13:55:48.530Z,74
2022-11-03T13:59:29.344Z,74
2022-11-03T14:06:04.398Z,74
2022-11-03T14:09:29.590Z,75
2022-11-03T14:12:54.746Z,75
2022-11-03T14:16:20.039Z,75
2022-11-03T14:19:50.353Z,76
2022-11-03T14:23:10.699Z,75
2022-11-03T14:26:42.073Z,75
2022-11-03T14:30:01.129Z,75
2022-11-03T15:05:10.186Z,77
2022-11-03T15:08:35.473Z,77
2022-11-03T15:12:00.758Z,78
2022-11-03T15:15:26.107Z,78
2022-11-03T15:18:51.421Z,78
2022-11-03T15:22:16.773Z,78
2022-11-03T15:25:41.974Z,78
2022-11-03T15:29:07.296Z,79
2022-11-03T15:32:36.227Z,79
2022-11-03T15:35:57.963Z,79
2022-11-03T15:39:23.522Z,79
2022-11-03T15:42:48.738Z,79
2022-11-03T15:46:14.253Z,79
2022-11-03T15:49:39.293Z,80
2022-11-03T15:53:04.562Z,80
2022-11-03T15:56:29.943Z,79
2022-11-03T15:59:56.829Z,80
2022-11-03T16:03:20.476Z,80
2022-11-03T16:07:06.584Z,80
2022-11-03T16:10:10.954Z,80
2022-11-03T16:13:36.868Z,80
2022-11-03T16:17:02.088Z,80
2022-11-03T16:20:28.330Z,80
2022-11-03T16:23:53.615Z,81
2022-11-03T16:27:18.896Z,81
2022-11-03T16:30:46.361Z,81
2022-11-03T16:34:09.410Z,82
2022-11-03T16:37:36.179Z,81
2022-11-03T16:41:01.451Z,82
2022-11-03T16:44:26.697Z,82
2022-11-03T16:47:51.950Z,82
2022-11-03T16:51:17.196Z,82
2022-11-03T16:54:42.462Z,82
2022-11-03T16:58:07.862Z,82
2022-11-03T17:01:33.200Z,82
2022-11-03T17:04:58.389Z,82
2022-11-03T17:08:51.096Z,82
2022-11-03T17:11:48.837Z,82
2022-11-03T17:15:14.396Z,83
2022-11-03T17:18:39.716Z,82
2022-11-03T17:22:06.738Z,82
2022-11-03T17:25:32.714Z,83
2022-11-03T17:28:57.961Z,83
2022-11-03T17:32:23.256Z,82
2022-11-03T17:35:48.523Z,83
2022-11-03T17:39:13.873Z,83
2022-11-03T17:42:39.050Z,83
2022-11-03T17:46:04.337Z,83
2022-11-03T17:49:29.568Z,83
2022-11-03T17:52:54.888Z,83
2022-11-03T17:56:35.454Z,83
2022-11-03T17:59:45.405Z,83
2022-11-03T18:03:10.691Z,83
2022-11-03T18:06:35.962Z,83
2022-11-03T18:10:01.198Z,83
2022-11-03T18:13:30.084Z,83
2022-11-03T18:16:54.739Z,83
2022-11-03T18:20:23.101Z,83
2022-11-03T18:23:49.212Z,83
2022-11-03T18:27:14.715Z,83
2022-11-03T18:30:40.168Z,82
2022-11-03T18:34:06.366Z,82
2022-11-03T18:37:31.692Z,82
2022-11-03T18:40:57.256Z,81
2022-11-03T18:44:22.638Z,81
2022-11-03T18:47:47.961Z,81
2022-11-03T18:51:13.232Z,81
2022-11-03T18:54:38.552Z,81
2022-11-03T18:58:05.115Z,81
2022-11-03T19:01:30.223Z,81
2022-11-03T19:04:55.443Z,81
2022-11-03T19:08:20.726Z,81
2022-11-03T19:11:46.049Z,81
2022-11-03T19:15:11.441Z,81
2022-11-03T19:18:36.704Z,81
2022-11-03T19:22:01.998Z,81
2022-11-03T19:25:27.211Z,81
2022-11-03T19:28:52.506Z,81
2022-11-03T19:32:17.802Z,81
2022-11-03T19:35:43.082Z,80
2022-11-03T19:39:09.671Z,79
2022-11-03T19:42:34.944Z,80
2022-11-03T19:46:00.215Z,80
2022-11-03T19:49:25.498Z,79
2022-11-03T19:52:50.759Z,79
2022-11-03T19:56:16.070Z,78
2022-11-03T19:59:41.314Z,78
2022-11-03T20:03:06.575Z,78
2022-11-03T20:06:31.847Z,79
2022-11-03T20:09:57.158Z,79
2022-11-03T20:13:22.454Z,79
2022-11-03T20:16:47.695Z,79
2022-11-03T20:20:12.978Z,79
2022-11-03T20:23:38.238Z,79
2022-11-03T20:27:03.515Z,78
2022-11-03T20:30:28.794Z,78
2022-11-03T20:33:54.036Z,78
2022-11-03T20:37:19.302Z,78
2022-11-03T20:40:44.564Z,78
2022-11-03T20:44:09.828Z,78
2022-11-03T20:47:35.121Z,79
2022-11-03T20:51:00.377Z,80
2022-11-03T20:54:26.282Z,80
2022-11-03T20:57:51.511Z,80
2022-11-03T21:01:16.854Z,80
2022-11-03T21:04:42.042Z,81
2022-11-03T21:08:07.246Z,81
2022-11-03T21:11:32.500Z,81
2022-11-03T21:14:57.761Z,80
2022-11-03T21:18:23.009Z,81
2022-11-03T21:21:48.316Z,81
2022-11-03T21:25:13.546Z,82
2022-11-03T21:28:38.824Z,82
2022-11-03T21:32:04.051Z,82
2022-11-03T21:35:29.300Z,82
2022-11-03T21:38:54.574Z,82
2022-11-03T21:42:19.792Z,82
2022-11-03T21:45:45.038Z,82
2022-11-03T21:49:10.301Z,83
2022-11-03T21:52:35.550Z,83
2022-11-03T21:56:00.847Z,83
2022-11-03T21:59:26.080Z,82
2022-11-03T22:02:51.321Z,83
2022-11-03T22:06:16.554Z,83
2022-11-03T22:09:41.793Z,83
2022-11-03T22:13:07.404Z,82
2022-11-03T22:16:32.274Z,82
2022-11-03T22:19:57.514Z,83
2022-11-03T22:23:22.750Z,83
2022-11-03T22:26:47.998Z,83
2022-11-03T22:30:13.238Z,83
2022-11-03T22:33:38.465Z,84
2022-11-03T22:37:03.721Z,83
2022-11-03T22:40:28.987Z,83
2022-11-03T22:43:54.250Z,83
2022-11-03T22:47:19.508Z,83
2022-11-03T22:50:44.727Z,83
2022-11-03T22:54:09.994Z,83
2022-11-03T22:57:35.260Z,83
2022-11-03T23:01:00.593Z,83
2022-11-03T23:04:25.775Z,83
2022-11-03T23:07:50.990Z,82
2022-11-03T23:11:16.316Z,82
2022-11-03T23:14:41.482Z,83
2022-11-03T23:18:06.729Z,83
2022-11-03T23:21:32.010Z,83
2022-11-03T23:24:57.242Z,82
2022-11-03T23:28:22.480Z,82
2022-11-03T23:31:47.722Z,83
2022-11-03T23:35:12.971Z,83
2022-11-03T23:38:38.253Z,83
2022-11-03T23:42:03.477Z,83
2022-11-03T23:45:28.709Z,84
2022-11-03T23:48:53.950Z,83
2022-11-03T23:52:19.190Z,84
2022-11-03T23:55:44.459Z,85
2022-11-03T23:59:09.676Z,86
